Mahaffey, PA (15757)

3:58 AM EDT on March 27, 2015 (GMT -0400)
West End | | Change Station
CLOSE
Current Station
Personal Weather Station
Location: Punxsutawney, PA
Elevation: 1279 ft
Nearby Weather Stations

Elev 1279 ft 40.94 °N, 78.99 °W | Updated 6 seconds ago

Overcast
Overcast
34.3 °F
Feels Like 34 °F
N
0.0
Wind Variable Wind from North
Gusts 0.0 mph

Today
High -- | Low -- °F
--% Chance of Precip.
Yesterday
High -- | Low -- °F
Precip. -- in
7:07 AM 7:34 PM
Waxing Crescent, 50% visible
Pressure 29.84 in
Visibility 10.0 miles
Clouds Mostly Cloudy 2200 ft
Overcast 2800 ft
Windchill 34 °F
Dew Point 31 °F
Humidity 89%
Rainfall 0.00 in
Snow Depth Not available.
UV 0 out of 12
Pollen 7.00 out of 12
Air Quality Not available.
Flu Activity Not available.
METAR KFIG 270754Z AUTO 28004KT 10SM BKN022 OVC028 01/M02 A2980 RMK AO2 SLP103 T00111017

More Conditions Fewer Conditions

Pressure 29.84 in
Visibility 10.0 miles
Clouds Mostly Cloudy 2200 ft
Overcast 2800 ft
Windchill 34 °F
Dew Point 31 °F
Humidity 89%
Rainfall 0.00 in
Snow Depth Not available.
UV 0 out of 12
Pollen 7.00 out of 12
Air Quality Not available.
Flu Activity Not available.
METAR KFIG 270754Z AUTO 28004KT 10SM BKN022 OVC028 01/M02 A2980 RMK AO2 SLP103 T00111017

More Conditions Fewer Conditions

10-Day Weather Forecast

Almanac

Astronomy

Mar. 27, 2015 Rise Set
Actual Time
Civil Twilight
Nautical Twilight
Astronomical Twilight
Moon
Length of Visible Light
Length of Day
Tomorrow will be .
, % of the Moon is Illuminated

Today's Extremes

State Highs State Lows

Community

WunderPhotos

Upload Photos

1,808,702 photos uploaded!

WunderBlogs® & News

Nearby

Air Quality

  Air Quality AQ Index Pollutant
Not available.

Snow Depth

Station Depth Elevation

Earthquake Activity

City Distance Mag. Time & Date
Minimum magnitude displayed is 2.5.

Coastal Water Temperatures

Place Temperature

Stations

Nearby Weather Stations

Station Location Temp. Windchill Dew Point Humidity Wind Precip. Elev Updated Type